首页
METAR-TAF:

METAR-TAF

机场 :

York Municipal Airport

约克, 內布拉斯加州, 美国

纬度: 40-53-48N, 经度: 097-37-22W, 海拔: 509米

当前天气观测

该预报发布于18分钟前的15:35 UTC
风速13节,风向南转西南
温度 29°C
湿度 66%
气压 1009 hPa
能見度: 14.5公里
天空无云

METAR: KJYR 241535Z AUTO 20013KT 9SM CLR 29/22 A2979 RMK AO2

时间: 10:53 (15:53 UTC)


TAF: 丢失

超过4000个机场的气象观测和天气预报(METAR&TAF报告)。

可查询的气象台以黄色和红色小点在地图上表示。

将鼠标移到小点上方,可查看气象台名称。

然后点击查看天气观测和预报。

如需切换地图:点击带黑十字的绿色按钮放大地图;点击带横线的绿色按钮缩小地图;或者点击绿色箭头查看邻近地区的地图。


METAR-TAF: